Time;durP1;ratioP1;P1;durP2;ratioP2;P2;SDS_P1;SDS_P2;PMS_P1;PMS_P2;Temp;Humidity;BMP_temperature;BMP_pressure;BME280_temperature;BME280_humidity;BME280_pressure;Samples;Min_cycle;Max_cycle;Signal;HPM_P1;HPM_P2
2023/04/06 00:02:04;;;;;;;;;;;;;;;21.59;26.29;97474.25;5029075;28;1044;-75
2023/04/06 00:04:30;;;;;;;;;;;;;;;22.17;25.72;97485.13;5033737;28;1262;-75
2023/04/06 00:06:56;;;;;;;;;;;;;;;22.26;25.66;97487.25;5033519;28;1048;-75
2023/04/06 00:09:22;;;;;;;;;;;;;;;22.65;25.12;97480.09;5033541;28;1096;-76
2023/04/06 00:11:47;;;;;;;;;;;;;;;22.01;25.88;97482.47;5033565;28;1910;-75
2023/04/06 00:14:13;;;;;;;;;;;;;;;21.42;26.60;97472.84;5033652;28;1013;-75
2023/04/06 00:16:39;;;;;;;;;;;;;;;21.60;26.34;97481.50;5053224;28;1435;-75
2023/04/06 00:19:05;;;;;;;;;;;;;;;21.92;26.30;97468.25;5053526;28;963;-75
2023/04/06 00:21:30;;;;;;;;;;;;;;;22.44;25.34;97480.91;5053260;28;1258;-76
2023/04/06 00:23:56;;;;;;;;;;;;;;;22.36;25.38;97475.50;5036717;28;1128;-75
2023/04/06 00:26:22;;;;;;;;;;;;;;;21.74;26.16;97469.66;5053069;28;950;-75
2023/04/06 00:28:51;;;;;;;;;;;;;;;21.75;26.24;97465.56;5053002;28;1452;-75
2023/04/06 00:31:17;;;;;;;;;;;;;;;21.74;26.14;97463.22;5036811;28;1909;-75
2023/04/06 00:33:43;;;;;;;;;;;;;;;21.85;25.96;97457.94;5036680;28;967;-75
2023/04/06 00:36:08;;;;;;;;;;;;;;;22.17;25.55;97461.69;5053081;28;939;-75
2023/04/06 00:38:34;;;;;;;;;;;;;;;22.13;25.69;97464.66;5036645;28;1115;-75
2023/04/06 00:40:59;;;;;;;;;;;;;;;22.35;25.83;97451.25;5034158;28;1671;-75
2023/04/06 00:43:25;;;;;;;;;;;;;;;22.06;25.88;97456.38;5017955;28;1482;-75
2023/04/06 00:45:51;;;;;;;;;;;;;;;21.49;26.59;97450.72;5020794;28;1359;-75
2023/04/06 00:48:16;;;;;;;;;;;;;;;21.57;26.21;97443.56;5036995;28;1054;-75
2023/04/06 00:50:43;;;;;;;;;;;;;;;21.84;26.69;97447.88;5021183;28;2005;-76
2023/04/06 00:53:08;;;;;;;;;;;;;;;22.18;25.68;97441.41;5022988;28;1064;-75
2023/04/06 00:55:35;;;;;;;;;;;;;;;22.14;25.99;97435.06;5040463;28;1219;-75
2023/04/06 00:58:01;;;;;;;;;;;;;;;21.76;26.26;97438.88;5024151;28;1247;-75
2023/04/06 01:00:30;;;;;;;;;;;;;;;21.44;26.50;97434.31;5053939;28;1409;-75
2023/04/06 01:02:59;;;;;;;;;;;;;;;21.60;26.15;97433.34;5058055;28;1181;-75
2023/04/06 01:05:40;;;;;;;;;;;;;;;21.78;26.24;97427.84;5076998;28;1244;-75
2023/04/06 01:08:09;;;;;;;;;;;;;;;22.28;25.59;97437.38;5044680;28;1244;-75
2023/04/06 01:10:35;;;;;;;;;;;;;;;22.32;25.61;97426.66;5076056;28;1906;-75
2023/04/06 01:13:22;;;;;;;;;;;;;;;22.26;25.71;97424.91;5046464;28;1229;-75
2023/04/06 01:15:58;;;;;;;;;;;;;;;22.08;25.61;97414.22;5044710;28;1308;-75
2023/04/06 01:18:30;;;;;;;;;;;;;;;21.52;26.45;97418.69;5061228;28;1073;-75
2023/04/06 01:21:15;;;;;;;;;;;;;;;21.69;26.29;97410.78;5076602;28;1042;-75
2023/04/06 01:23:48;;;;;;;;;;;;;;;22.11;25.79;97407.66;5044786;28;1307;-75
2023/04/06 01:26:20;;;;;;;;;;;;;;;22.05;26.13;97403.81;5060404;28;1467;-75
2023/04/06 01:28:46;;;;;;;;;;;;;;;22.12;25.71;97403.56;5076651;28;1214;-75
2023/04/06 01:31:28;;;;;;;;;;;;;;;21.73;26.25;97410.66;5076247;28;1902;-75
2023/04/06 01:33:54;;;;;;;;;;;;;;;21.85;25.78;97395.66;5042948;28;1165;-75
2023/04/06 01:36:22;;;;;;;;;;;;;;;21.87;25.92;97398.03;5040678;28;1055;-75
2023/04/06 01:38:56;;;;;;;;;;;;;;;22.51;25.11;97385.03;5057481;28;1512;-75
2023/04/06 01:41:29;;;;;;;;;;;;;;;22.45;25.07;97388.94;5057464;28;1281;-76
2023/04/06 01:43:55;;;;;;;;;;;;;;;22.20;25.41;97393.53;5057190;28;1133;-75
2023/04/06 01:46:23;;;;;;;;;;;;;;;22.19;25.34;97374.97;5056340;28;1164;-75
2023/04/06 01:48:50;;;;;;;;;;;;;;;21.87;25.85;97372.53;5056916;28;1145;-75
2023/04/06 01:51:30;;;;;;;;;;;;;;;21.57;26.19;97374.84;5057182;28;1975;-74
2023/04/06 01:53:59;;;;;;;;;;;;;;;21.96;26.09;97372.59;5057126;28;1239;-75
2023/04/06 01:56:36;;;;;;;;;;;;;;;22.14;25.54;97378.41;5056316;28;1479;-75
2023/04/06 01:59:11;;;;;;;;;;;;;;;22.06;25.72;97362.88;5056953;28;1250;-75
2023/04/06 02:01:41;;;;;;;;;;;;;;;21.79;26.11;97366.34;5040823;28;1752;-75
2023/04/06 02:04:06;;;;;;;;;;;;;;;21.69;26.09;97368.31;5055961;28;1113;-75
2023/04/06 02:06:32;;;;;;;;;;;;;;;21.48;26.22;97369.88;5056884;28;1246;-75
2023/04/06 02:08:59;;;;;;;;;;;;;;;21.83;26.27;97370.63;5056573;28;1063;-75
2023/04/06 02:11:25;;;;;;;;;;;;;;;22.21;25.35;97369.63;5073570;28;1902;-75
2023/04/06 02:13:55;;;;;;;;;;;;;;;22.10;25.54;97369.22;5056728;28;1121;-75
2023/04/06 02:16:23;;;;;;;;;;;;;;;21.84;25.99;97369.38;5089566;28;1162;-75
2023/04/06 02:18:49;;;;;;;;;;;;;;;21.57;25.89;97369.19;5056739;28;1118;-75
2023/04/06 02:21:19;;;;;;;;;;;;;;;21.97;25.21;97363.66;5056502;28;1306;-75
2023/04/06 02:23:46;;;;;;;;;;;;;;;21.77;25.72;97363.97;5039321;28;1457;-75
2023/04/06 02:26:12;;;;;;;;;;;;;;;22.06;25.85;97355.19;5072204;28;1166;-75
2023/04/06 02:28:38;;;;;;;;;;;;;;;22.30;25.50;97358.31;5056717;28;1252;-75
2023/04/06 02:31:03;;;;;;;;;;;;;;;22.31;25.46;97364.78;5072664;28;1902;-76
2023/04/06 02:33:29;;;;;;;;;;;;;;;22.01;25.43;97360.66;5073048;28;993;-75
2023/04/06 02:35:55;;;;;;;;;;;;;;;21.87;25.66;97359.19;5056354;28;1096;-75
2023/04/06 02:38:21;;;;;;;;;;;;;;;21.69;25.98;97359.03;5056447;28;1048;-76
2023/04/06 02:40:47;;;;;;;;;;;;;;;21.75;25.98;97352.31;5056188;28;1067;-76
2023/04/06 02:43:22;;;;;;;;;;;;;;;22.15;25.39;97357.31;5056490;28;1108;-75
2023/04/06 02:45:52;;;;;;;;;;;;;;;22.03;25.47;97356.13;5039577;28;1157;-75
2023/04/06 02:48:20;;;;;;;;;;;;;;;22.00;25.65;97344.91;5056159;28;1296;-75
2023/04/06 02:50:46;;;;;;;;;;;;;;;21.89;25.80;97367.19;5055944;28;1959;-75
2023/04/06 02:53:11;;;;;;;;;;;;;;;21.61;25.70;97367.03;5078129;28;1277;-75
2023/04/06 02:55:39;;;;;;;;;;;;;;;21.57;25.97;97374.84;5078267;28;1147;-75
2023/04/06 02:58:04;;;;;;;;;;;;;;;21.79;25.83;97372.00;5077962;28;932;-75
2023/04/06 03:00:38;;;;;;;;;;;;;;;22.16;25.15;97373.03;5077893;28;1497;-76
2023/04/06 03:03:04;;;;;;;;;;;;;;;22.23;24.95;97374.84;5078119;28;1136;-75
2023/04/06 03:05:30;;;;;;;;;;;;;;;22.12;25.27;97363.88;5094844;28;998;-75
2023/04/06 03:07:56;;;;;;;;;;;;;;;22.17;24.69;97376.66;5057572;28;1308;-75
2023/04/06 03:10:42;;;;;;;;;;;;;;;21.80;25.21;97377.19;5043695;28;1968;-75
2023/04/06 03:13:08;;;;;;;;;;;;;;;21.71;25.20;97373.50;5057550;28;979;-75
2023/04/06 03:16:00;;;;;;;;;;;;;;;22.15;25.02;97379.97;5021110;28;1000;-75
2023/04/06 03:18:26;;;;;;;;;;;;;;;22.33;24.66;97377.25;5001687;28;1142;-76
2023/04/06 03:20:54;;;;;;;;;;;;;;;22.31;24.59;97378.94;5002339;28;1174;-75
2023/04/06 03:23:22;;;;;;;;;;;;;;;22.17;24.75;97374.63;5014459;28;1219;-75
2023/04/06 03:25:52;;;;;;;;;;;;;;;21.83;25.20;97381.94;5014295;28;1352;-75
2023/04/06 03:28:19;;;;;;;;;;;;;;;21.96;24.98;97378.25;4997543;28;1266;-75
2023/04/06 03:30:57;;;;;;;;;;;;;;;21.90;25.27;97375.22;4999886;28;1898;-75
2023/04/06 03:33:38;;;;;;;;;;;;;;;21.76;25.49;97376.56;4986049;28;1230;-75
2023/04/06 03:36:04;;;;;;;;;;;;;;;22.16;24.73;97375.09;5014235;28;1307;-75
2023/04/06 03:38:33;;;;;;;;;;;;;;;22.26;24.54;97385.22;4982304;28;1190;-76
2023/04/06 03:41:02;;;;;;;;;;;;;;;21.80;25.23;97365.88;4981858;28;1205;-75
2023/04/06 03:43:27;;;;;;;;;;;;;;;21.79;25.20;97386.97;4998042;28;1050;-75
2023/04/06 03:45:53;;;;;;;;;;;;;;;21.48;25.46;97389.72;5011885;28;1360;-76
2023/04/06 03:48:19;;;;;;;;;;;;;;;21.78;25.23;97391.03;5017396;28;1231;-75
2023/04/06 03:50:45;;;;;;;;;;;;;;;22.38;24.58;97392.03;5017496;28;1967;-75
2023/04/06 03:53:10;;;;;;;;;;;;;;;22.30;24.60;97386.66;5048276;28;1242;-76
2023/04/06 03:55:36;;;;;;;;;;;;;;;21.90;25.07;97392.22;5054787;28;1236;-75
2023/04/06 03:58:02;;;;;;;;;;;;;;;21.58;25.35;97384.91;5057247;28;1260;-75
2023/04/06 04:00:27;;;;;;;;;;;;;;;21.49;25.68;97384.84;5040679;28;1008;-76
2023/04/06 04:02:54;;;;;;;;;;;;;;;21.31;25.85;97345.88;5058323;28;1217;-75
2023/04/06 04:05:24;;;;;;;;;;;;;;;22.10;25.01;97378.53;5074599;28;967;-75
2023/04/06 04:07:51;;;;;;;;;;;;;;;22.25;24.92;97378.78;5039014;28;1765;-75
2023/04/06 04:10:17;;;;;;;;;;;;;;;22.43;24.74;97385.78;5055633;28;1472;-75
2023/04/06 04:12:43;;;;;;;;;;;;;;;21.76;25.31;97387.91;5056989;28;2096;-75
2023/04/06 04:15:09;;;;;;;;;;;;;;;21.87;25.09;97392.38;5057584;28;1283;-76
2023/04/06 04:17:34;;;;;;;;;;;;;;;21.63;25.30;97392.81;5036073;28;1496;-75
2023/04/06 04:20:00;;;;;;;;;;;;;;;22.36;24.58;97396.13;5016282;28;1549;-75
2023/04/06 04:22:27;;;;;;;;;;;;;;;22.19;24.94;97406.13;5016792;28;1482;-75
2023/04/06 04:24:53;;;;;;;;;;;;;;;22.16;24.84;97412.72;5033295;28;1480;-75
2023/04/06 04:27:19;;;;;;;;;;;;;;;21.95;24.85;97402.97;5052679;28;1489;-75
2023/04/06 04:29:47;;;;;;;;;;;;;;;21.75;24.93;97396.84;5068885;28;1579;-75
2023/04/06 04:32:13;;;;;;;;;;;;;;;21.55;25.39;97399.97;5053254;28;1971;-75
2023/04/06 04:34:42;;;;;;;;;;;;;;;22.00;25.18;97393.06;5056156;28;1051;-75
2023/04/06 04:37:13;;;;;;;;;;;;;;;22.53;24.39;97388.19;5032861;28;1409;-75
2023/04/06 04:39:48;;;;;;;;;;;;;;;22.31;24.85;97391.06;5016178;28;1546;-75
2023/04/06 04:42:14;;;;;;;;;;;;;;;22.03;24.69;97390.13;4996850;28;1183;-75
2023/04/06 04:44:45;;;;;;;;;;;;;;;21.83;24.99;97392.50;4954749;29;1323;-76
2023/04/06 04:47:11;;;;;;;;;;;;;;;21.66;24.95;97397.56;4923006;29;1414;-75
2023/04/06 04:49:42;;;;;;;;;;;;;;;22.10;25.11;97394.72;4923814;29;1113;-75
2023/04/06 04:52:09;;;;;;;;;;;;;;;22.53;24.37;97401.56;4954885;29;1989;-75
2023/04/06 04:54:47;;;;;;;;;;;;;;;22.30;24.54;97398.00;4954346;29;1933;-76
2023/04/06 04:57:20;;;;;;;;;;;;;;;21.79;25.11;97408.81;4939473;29;1588;-76
2023/04/06 04:59:47;;;;;;;;;;;;;;;21.89;24.79;97407.63;4959596;28;1551;-75
2023/04/06 05:02:17;;;;;;;;;;;;;;;21.69;24.86;97413.63;4927896;29;1535;-76
2023/04/06 05:04:54;;;;;;;;;;;;;;;21.29;25.90;97405.69;4915601;29;1572;-75
2023/04/06 05:07:23;;;;;;;;;;;;;;;22.10;25.06;97395.53;4931078;29;1586;-75
2023/04/06 05:09:51;;;;;;;;;;;;;;;22.05;24.95;97409.47;4930793;29;1390;-75
2023/04/06 05:12:18;;;;;;;;;;;;;;;21.83;25.36;97404.63;4947146;28;1915;-75
2023/04/06 05:14:53;;;;;;;;;;;;;;;21.59;25.60;97406.31;4990164;28;1586;-75
2023/04/06 05:17:21;;;;;;;;;;;;;;;21.51;25.57;97405.00;5014749;28;1581;-75
2023/04/06 05:19:47;;;;;;;;;;;;;;;21.96;25.24;97395.25;5024630;28;1487;-75
2023/04/06 05:22:17;;;;;;;;;;;;;;;22.35;24.80;97405.91;5006949;28;1397;-75
2023/04/06 05:24:47;;;;;;;;;;;;;;;22.17;24.96;97400.13;5052587;28;1334;-75
2023/04/06 05:27:12;;;;;;;;;;;;;;;22.03;24.81;97400.66;5035965;28;1275;-75
2023/04/06 05:29:38;;;;;;;;;;;;;;;21.51;25.37;97399.34;5032688;28;966;-75
2023/04/06 05:32:04;;;;;;;;;;;;;;;21.83;25.25;97386.84;4999713;28;1926;-75
2023/04/06 05:34:31;;;;;;;;;;;;;;;22.05;25.45;97392.47;5000019;28;1566;-75
2023/04/06 05:37:00;;;;;;;;;;;;;;;22.52;24.30;97389.44;5000053;28;1072;-75
2023/04/06 05:39:26;;;;;;;;;;;;;;;22.36;24.39;97390.47;4999929;28;1248;-75
2023/04/06 05:41:53;;;;;;;;;;;;;;;22.11;24.61;97390.66;5000103;28;1293;-75
2023/04/06 05:44:30;;;;;;;;;;;;;;;21.68;25.12;97400.72;4999953;28;1300;-75
2023/04/06 05:47:04;;;;;;;;;;;;;;;21.58;25.29;97387.75;4999483;28;1332;-76
2023/04/06 05:49:30;;;;;;;;;;;;;;;21.96;25.21;97392.41;4999993;28;977;-75
2023/04/06 05:51:56;;;;;;;;;;;;;;;22.38;24.43;97380.72;4999765;28;1914;-75
2023/04/06 05:54:22;;;;;;;;;;;;;;;22.01;25.44;97374.81;4961623;28;1394;-75
2023/04/06 05:56:48;;;;;;;;;;;;;;;21.93;25.00;97384.84;4997661;28;1157;-75
2023/04/06 05:59:15;;;;;;;;;;;;;;;21.70;25.03;97381.22;4967635;28;1131;-75
2023/04/06 06:01:42;;;;;;;;;;;;;;;21.44;25.79;97376.94;5019551;28;1122;-73
2023/04/06 06:04:09;;;;;;;;;;;;;;;21.54;25.99;97376.53;5035584;28;949;-74
2023/04/06 06:06:37;;;;;;;;;;;;;;;22.24;24.75;97382.88;5064361;28;1086;-73
2023/04/06 06:09:15;;;;;;;;;;;;;;;22.15;24.80;97371.47;5063654;28;1263;-74
2023/04/06 06:11:50;;;;;;;;;;;;;;;22.06;24.78;97372.16;5079037;28;2241;-73
2023/04/06 06:14:17;;;;;;;;;;;;;;;21.81;25.10;97366.66;5062474;28;1309;-73
2023/04/06 06:16:43;;;;;;;;;;;;;;;21.69;25.19;97379.66;5078730;28;995;-73
2023/04/06 06:19:11;;;;;;;;;;;;;;;21.55;25.52;97377.31;5062515;28;1243;-73
2023/04/06 06:21:37;;;;;;;;;;;;;;;21.86;25.65;97368.91;5061733;28;1289;-73
2023/04/06 06:24:05;;;;;;;;;;;;;;;22.27;24.96;97369.78;5062259;28;1207;-73
2023/04/06 06:26:31;;;;;;;;;;;;;;;22.15;25.13;97379.97;5078802;28;1112;-73
2023/04/06 06:28:58;;;;;;;;;;;;;;;22.01;25.28;97369.16;5078629;28;1185;-77
2023/04/06 06:31:24;;;;;;;;;;;;;;;21.76;25.23;97376.56;5061932;28;1906;-75
2023/04/06 06:33:51;;;;;;;;;;;;;;;21.53;25.76;97385.50;5052816;28;1318;-74
2023/04/06 06:36:18;;;;;;;;;;;;;;;21.62;25.71;97382.75;5043117;28;1513;-75
2023/04/06 06:38:45;;;;;;;;;;;;;;;21.96;25.23;97381.06;5075854;28;1450;-75
2023/04/06 06:41:11;;;;;;;;;;;;;;;22.18;24.89;97390.41;5058351;28;1494;-74
2023/04/06 06:43:37;;;;;;;;;;;;;;;21.73;25.58;97382.34;5084265;28;1686;-75
2023/04/06 06:46:07;;;;;;;;;;;;;;;21.65;25.67;97390.31;5075798;28;1465;-74
2023/04/06 06:48:33;;;;;;;;;;;;;;;21.43;25.87;97387.47;5057767;28;1579;-75
2023/04/06 06:50:58;;;;;;;;;;;;;;;21.90;25.65;97374.44;5055471;28;1968;-74
2023/04/06 06:53:24;;;;;;;;;;;;;;;22.22;24.86;97374.03;5074449;28;1550;-75
2023/04/06 06:55:50;;;;;;;;;;;;;;;22.23;25.15;97386.97;5057775;28;1505;-74
2023/04/06 06:58:17;;;;;;;;;;;;;;;21.95;25.08;97371.78;5037869;28;1699;-75
2023/04/06 07:00:43;;;;;;;;;;;;;;;21.95;24.98;97382.34;5041190;28;1532;-75
2023/04/06 07:03:09;;;;;;;;;;;;;;;21.95;24.97;97379.50;5057714;28;1496;-75
2023/04/06 07:05:35;;;;;;;;;;;;;;;22.05;25.34;97381.16;5057450;28;1611;-75
2023/04/06 07:08:00;;;;;;;;;;;;;;;22.30;24.79;97381.00;5052305;28;1567;-75
2023/04/06 07:10:26;;;;;;;;;;;;;;;22.24;24.97;97382.88;5077365;28;1580;-75
2023/04/06 07:12:52;;;;;;;;;;;;;;;21.61;25.67;97381.19;5077294;28;1977;-73
2023/04/06 07:15:17;;;;;;;;;;;;;;;21.62;25.64;97385.56;5077125;28;1497;-74
2023/04/06 07:17:46;;;;;;;;;;;;;;;21.76;25.19;97382.22;5060965;28;1567;-73
2023/04/06 07:20:12;;;;;;;;;;;;;;;22.08;25.20;97385.91;5077644;28;1357;-73
2023/04/06 07:22:39;;;;;;;;;;;;;;;22.33;24.63;97391.41;5077629;28;1092;-74
2023/04/06 07:25:04;;;;;;;;;;;;;;;22.08;25.15;97391.56;5060831;28;1091;-74
2023/04/06 07:27:30;;;;;;;;;;;;;;;21.82;25.29;97391.72;5077332;28;1349;-74
2023/04/06 07:29:56;;;;;;;;;;;;;;;21.87;25.04;97390.31;5060749;28;1082;-74
2023/04/06 07:32:22;;;;;;;;;;;;;;;21.65;25.38;97386.69;5060185;28;1967;-75
2023/04/06 07:34:48;;;;;;;;;;;;;;;21.64;25.62;97385.91;5060610;28;2060;-74
2023/04/06 07:37:14;;;;;;;;;;;;;;;22.14;25.19;97388.94;5076657;28;1716;-74
2023/04/06 07:39:40;;;;;;;;;;;;;;;22.16;25.12;97375.88;5094074;28;1476;-74
2023/04/06 07:42:06;;;;;;;;;;;;;;;21.90;25.13;97380.09;5062258;28;1491;-74
2023/04/06 07:44:31;;;;;;;;;;;;;;;21.61;25.80;97380.38;5080109;28;1493;-74
2023/04/06 07:46:57;;;;;;;;;;;;;;;21.56;25.51;97379.72;5074635;28;1309;-74
2023/04/06 07:49:23;;;;;;;;;;;;;;;21.66;25.52;97383.41;5083173;28;1412;-74
2023/04/06 07:51:49;;;;;;;;;;;;;;;22.15;24.98;97382.81;5053038;28;1906;-74
2023/04/06 07:54:15;;;;;;;;;;;;;;;22.02;25.47;97376.38;5073902;28;1611;-74
2023/04/06 07:56:40;;;;;;;;;;;;;;;22.17;25.29;97376.66;5075642;28;1451;-75
2023/04/06 07:59:06;;;;;;;;;;;;;;;21.96;25.38;97375.41;5057767;28;1270;-74
2023/04/06 08:01:31;;;;;;;;;;;;;;;21.59;25.91;97378.78;5075625;28;1574;-74
2023/04/06 08:03:57;;;;;;;;;;;;;;;21.58;25.94;97379.25;5075388;28;1492;-74
2023/04/06 08:06:23;;;;;;;;;;;;;;;22.10;25.11;97383.38;5102479;28;1270;-75
2023/04/06 08:08:48;;;;;;;;;;;;;;;22.02;25.22;97382.06;5057950;28;1105;-74
2023/04/06 08:11:14;;;;;;;;;;;;;;;22.34;25.06;97393.00;5107963;28;1972;-74
2023/04/06 08:13:41;;;;;;;;;;;;;;;22.03;25.31;97389.31;5108408;28;1473;-74
2023/04/06 08:16:07;;;;;;;;;;;;;;;21.70;25.34;97384.06;5074638;28;1105;-74
2023/04/06 08:18:32;;;;;;;;;;;;;;;21.72;25.57;97387.22;5075085;28;1137;-74
2023/04/06 08:20:58;;;;;;;;;;;;;;;22.29;24.79;97382.25;5108540;28;938;-74
2023/04/06 08:23:23;;;;;;;;;;;;;;;22.21;25.30;97380.94;5076199;28;901;-74
2023/04/06 08:25:49;;;;;;;;;;;;;;;22.06;25.35;97388.38;5108571;28;1068;-74
2023/04/06 08:28:15;;;;;;;;;;;;;;;21.55;25.76;97383.00;5091443;28;930;-74
2023/04/06 08:30:41;;;;;;;;;;;;;;;21.57;25.78;97380.50;5074687;28;1991;-74
2023/04/06 08:33:08;;;;;;;;;;;;;;;21.50;25.93;97380.75;5091034;28;1000;-74
2023/04/06 08:35:34;;;;;;;;;;;;;;;22.07;25.24;97384.28;5108077;28;982;-74
2023/04/06 08:37:59;;;;;;;;;;;;;;;21.99;25.32;97371.66;5074320;28;1114;-74
2023/04/06 08:40:25;;;;;;;;;;;;;;;22.07;25.20;97379.44;5075703;28;1649;-74
2023/04/06 08:42:54;;;;;;;;;;;;;;;21.90;25.57;97374.44;5091294;28;1217;-74
2023/04/06 08:45:21;;;;;;;;;;;;;;;21.44;26.22;97379.75;5108041;28;940;-75
2023/04/06 08:47:50;;;;;;;;;;;;;;;21.36;26.19;97381.28;5074639;28;1687;-75
2023/04/06 08:50:16;;;;;;;;;;;;;;;21.97;25.54;97379.84;5108492;28;956;-75
2023/04/06 08:52:42;;;;;;;;;;;;;;;22.19;25.00;97374.97;5108516;28;1986;-75
2023/04/06 08:55:08;;;;;;;;;;;;;;;22.48;24.79;97379.50;5108438;28;1004;-75
2023/04/06 08:57:33;;;;;;;;;;;;;;;22.02;25.31;97382.06;5113832;28;1023;-75
2023/04/06 08:59:59;;;;;;;;;;;;;;;21.87;25.44;97379.00;5096536;28;1401;-75
2023/04/06 09:02:25;;;;;;;;;;;;;;;21.63;25.77;97384.31;5096870;28;933;-75
2023/04/06 09:04:52;;;;;;;;;;;;;;;21.89;25.46;97379.31;5098818;28;939;-75
2023/04/06 09:07:18;;;;;;;;;;;;;;;21.99;25.51;97385.84;5083606;28;1019;-76
2023/04/06 09:09:47;;;;;;;;;;;;;;;22.03;25.49;97378.00;5117312;28;1047;-76
2023/04/06 09:12:42;;;;;;;;;;;;;;;21.89;25.34;97389.84;5117380;28;1967;-75
2023/04/06 09:15:17;;;;;;;;;;;;;;;21.65;25.89;97387.47;5040134;28;1564;-75
2023/04/06 09:17:43;;;;;;;;;;;;;;;21.70;25.84;97383.25;5040347;28;1126;-75
2023/04/06 09:20:09;;;;;;;;;;;;;;;21.61;26.34;97392.50;5040093;28;1123;-76
2023/04/06 09:22:38;;;;;;;;;;;;;;;21.97;25.63;97377.81;5023548;28;1058;-75
2023/04/06 09:25:04;;;;;;;;;;;;;;;22.38;24.79;97380.72;5023523;28;959;-75
2023/04/06 09:27:30;;;;;;;;;;;;;;;22.18;24.98;97389.59;5017413;28;1571;-75
2023/04/06 09:30:08;;;;;;;;;;;;;;;21.71;25.66;97399.00;5013772;28;1014;-76
2023/04/06 09:32:57;;;;;;;;;;;;;;;21.66;25.76;97389.06;4980841;28;1902;-75
2023/04/06 09:35:23;;;;;;;;;;;;;;;21.68;25.79;97391.44;5016358;28;1018;-75
2023/04/06 09:37:49;;;;;;;;;;;;;;;21.91;25.43;97393.00;5016795;28;1028;-75
2023/04/06 09:40:17;;;;;;;;;;;;;;;22.11;25.30;97379.31;5000510;28;942;-75
2023/04/06 09:42:43;;;;;;;;;;;;;;;22.28;25.01;97377.84;5016600;28;1144;-74
2023/04/06 09:45:08;;;;;;;;;;;;;;;21.91;25.60;97385.28;4993864;28;1566;-75
2023/04/06 09:47:36;;;;;;;;;;;;;;;21.66;25.61;97383.41;4997059;28;1050;-75
2023/04/06 09:50:01;;;;;;;;;;;;;;;21.51;25.91;97394.47;4964687;28;1282;-76
2023/04/06 09:52:32;;;;;;;;;;;;;;;22.30;24.85;97385.88;4981801;28;1906;-75
2023/04/06 09:55:01;;;;;;;;;;;;;;;22.19;25.00;97391.97;5016696;28;1146;-76
2023/04/06 09:58:06;;;;;;;;;;;;;;;22.19;25.23;97386.31;5000470;28;941;-75
2023/04/06 10:00:32;;;;;;;;;;;;;;;21.73;25.45;97393.69;4996570;28;1006;-75
2023/04/06 10:02:58;;;;;;;;;;;;;;;21.73;25.37;97390.84;5013249;28;1089;-75
2023/04/06 10:05:37;;;;;;;;;;;;;;;21.67;25.89;97385.00;5010315;28;1014;-75
2023/04/06 10:08:07;;;;;;;;;;;;;;;21.87;25.78;97386.72;5016144;28;904;-75
2023/04/06 10:10:32;;;;;;;;;;;;;;;22.22;25.13;97385.34;5016145;28;1073;-75
2023/04/06 10:12:58;;;;;;;;;;;;;;;22.23;24.95;97375.63;4973844;28;1971;-75
2023/04/06 10:15:24;;;;;;;;;;;;;;;21.89;25.47;97390.66;4996347;28;2062;-76
2023/04/06 10:17:50;;;;;;;;;;;;;;;21.94;25.24;97392.09;4976222;28;1053;-75
2023/04/06 10:20:22;;;;;;;;;;;;;;;21.72;25.59;97381.56;4976872;28;1034;-75
2023/04/06 10:22:53;;;;;;;;;;;;;;;21.61;25.96;97397.38;4993382;28;1145;-75
2023/04/06 10:25:32;;;;;;;;;;;;;;;22.03;25.31;97380.81;4976815;28;974;-75
2023/04/06 10:28:15;;;;;;;;;;;;;;;22.01;25.23;97380.47;4977090;28;904;-75
2023/04/06 10:30:44;;;;;;;;;;;;;;;21.90;25.58;97391.44;4982923;28;1976;-75
2023/04/06 10:33:16;;;;;;;;;;;;;;;21.73;25.49;97377.47;5055317;28;1662;-75
2023/04/06 10:35:42;;;;;;;;;;;;;;;21.66;25.71;97389.06;5060718;28;1332;-75
2023/04/06 10:38:07;;;;;;;;;;;;;;;21.61;25.66;97386.06;5054977;28;1374;-75
2023/04/06 10:40:37;;;;;;;;;;;;;;;22.46;24.60;97394.16;5055154;28;1557;-75
2023/04/06 10:43:07;;;;;;;;;;;;;;;22.19;25.07;97389.13;5055091;28;906;-75
2023/04/06 10:45:32;;;;;;;;;;;;;;;21.81;25.67;97390.13;5057256;28;1886;-75
2023/04/06 10:47:58;;;;;;;;;;;;;;;21.82;25.53;97386.03;5046797;28;1623;-76
2023/04/06 10:50:24;;;;;;;;;;;;;;;21.47;26.33;97387.34;5040657;28;1609;-75
2023/04/06 10:52:59;;;;;;;;;;;;;;;21.69;26.04;97382.47;5056439;28;1973;-75
2023/04/06 10:55:26;;;;;;;;;;;;;;;22.33;24.85;97388.59;5064324;28;1532;-75
2023/04/06 10:57:52;;;;;;;;;;;;;;;22.24;25.08;97382.88;5098991;28;1039;-75
2023/04/06 11:00:19;;;;;;;;;;;;;;;22.14;25.33;97381.22;5081870;28;917;-75
2023/04/06 11:02:44;;;;;;;;;;;;;;;22.08;25.29;97372.50;5098908;28;975;-75
2023/04/06 11:05:11;;;;;;;;;;;;;;;21.93;25.17;97379.19;5115375;28;1061;-75
2023/04/06 11:07:37;;;;;;;;;;;;;;;22.09;24.91;97371.25;5081736;28;921;-75
2023/04/06 11:10:03;;;;;;;;;;;;;;;21.75;25.72;97380.63;5074243;28;1107;-76
2023/04/06 11:12:30;;;;;;;;;;;;;;;21.56;26.05;97378.94;5074868;28;1902;-76
2023/04/06 11:15:06;;;;;;;;;;;;;;;21.48;25.96;97378.38;5058215;28;1031;-75
2023/04/06 11:17:33;;;;;;;;;;;;;;;21.61;26.11;97381.19;5047015;28;1302;-76
2023/04/06 11:19:58;;;;;;;;;;;;;;;21.69;26.01;97376.81;5053818;28;1614;-75
2023/04/06 11:22:24;;;;;;;;;;;;;;;22.38;25.08;97372.22;5037546;28;1612;-75
2023/04/06 11:24:50;;;;;;;;;;;;;;;22.59;24.48;97374.22;5035016;28;1541;-76
2023/04/06 11:27:16;;;;;;;;;;;;;;;21.93;25.49;97374.31;5054126;28;1477;-75
2023/04/06 11:29:41;;;;;;;;;;;;;;;21.59;26.14;97378.00;5053681;28;918;-76
2023/04/06 11:32:08;;;;;;;;;;;;;;;21.76;25.91;97370.09;5054353;28;1973;-76
2023/04/06 11:34:36;;;;;;;;;;;;;;;21.87;25.52;97364.06;5054573;28;905;-76
2023/04/06 11:37:05;;;;;;;;;;;;;;;22.26;24.94;97371.84;5054430;28;1006;-76
2023/04/06 11:39:32;;;;;;;;;;;;;;;22.15;25.53;97368.63;5054303;28;966;-75
2023/04/06 11:41:58;;;;;;;;;;;;;;;22.06;25.13;97357.22;5054924;28;1546;-75
2023/04/06 11:44:49;;;;;;;;;;;;;;;21.66;25.73;97360.75;5074122;28;970;-76
2023/04/06 11:47:14;;;;;;;;;;;;;;;21.67;25.61;97351.00;5017437;28;1193;-75
2023/04/06 11:49:40;;;;;;;;;;;;;;;21.83;25.66;97347.97;5001405;28;976;-75
2023/04/06 11:52:15;;;;;;;;;;;;;;;21.65;25.42;97285.56;5017308;28;1985;-75
2023/04/06 11:54:41;;;;;;;;;;;;;;;22.21;25.31;97360.31;5017787;28;1142;-76
2023/04/06 11:57:07;;;;;;;;;;;;;;;22.01;25.27;97355.00;5034252;28;1010;-75
2023/04/06 11:59:32;;;;;;;;;;;;;;;21.78;25.35;97351.41;5034150;28;1090;-75
2023/04/06 12:01:58;;;;;;;;;;;;;;;21.69;25.63;97354.16;5034039;28;1005;-75
2023/04/06 12:04:24;;;;;;;;;;;;;;;21.73;25.75;97337.84;5034278;28;977;-76
2023/04/06 12:06:50;;;;;;;;;;;;;;;21.98;25.32;97342.56;5001037;28;1237;-76
2023/04/06 12:09:17;;;;;;;;;;;;;;;21.96;25.45;97342.22;5017849;28;1195;-75
2023/04/06 12:11:43;;;;;;;;;;;;;;;21.94;25.31;97353.22;5017189;28;1906;-75
2023/04/06 12:14:08;;;;;;;;;;;;;;;21.37;26.12;97351.72;5034022;28;990;-75
2023/04/06 12:16:34;;;;;;;;;;;;;;;21.52;25.88;97349.97;5017297;28;1113;-76
2023/04/06 12:19:01;;;;;;;;;;;;;;;21.66;25.87;97349.44;5033372;28;933;-75
2023/04/06 12:21:27;;;;;;;;;;;;;;;22.05;25.25;97341.47;5037093;28;1098;-75
2023/04/06 12:23:52;;;;;;;;;;;;;;;22.15;25.24;97354.47;5025064;28;1221;-76
2023/04/06 12:26:18;;;;;;;;;;;;;;;22.23;25.10;97344.44;5055922;28;872;-76
2023/04/06 12:28:44;;;;;;;;;;;;;;;22.11;24.99;97350.97;5071411;28;1020;-75
2023/04/06 12:31:16;;;;;;;;;;;;;;;21.79;25.40;97347.31;5054638;28;1902;-74
2023/04/06 12:33:42;;;;;;;;;;;;;;;21.75;25.58;97335.31;5071075;28;959;-75
2023/04/06 12:36:15;;;;;;;;;;;;;;;22.26;25.14;97356.88;5056027;28;904;-76
2023/04/06 12:38:41;;;;;;;;;;;;;;;22.31;24.84;97354.22;5054724;28;958;-75
2023/04/06 12:41:07;;;;;;;;;;;;;;;22.05;25.22;97349.97;5044035;28;1102;-74
2023/04/06 12:43:32;;;;;;;;;;;;;;;21.97;25.43;97351.53;5077562;28;988;-75
2023/04/06 12:45:59;;;;;;;;;;;;;;;21.81;25.41;97350.50;5060986;28;1264;-75
2023/04/06 12:48:25;;;;;;;;;;;;;;;21.67;25.52;97348.19;5060885;28;908;-75
2023/04/06 12:51:08;;;;;;;;;;;;;;;21.88;25.91;97354.28;5060344;28;1981;-75
2023/04/06 12:53:34;;;;;;;;;;;;;;;21.95;25.33;97349.13;5060775;28;1063;-75
2023/04/06 12:56:00;;;;;;;;;;;;;;;22.24;25.00;97353.75;5077442;28;1063;-75
2023/04/06 12:58:29;;;;;;;;;;;;;;;21.81;25.62;97347.66;5060628;28;1173;-75
2023/04/06 13:00:55;;;;;;;;;;;;;;;21.70;25.64;97350.06;5070891;28;1475;-74
2023/04/06 13:03:22;;;;;;;;;;;;;;;21.65;25.60;97356.31;5040664;28;1151;-75